Time;durP1;ratioP1;P1;durP2;ratioP2;P2;SDS_P1;SDS_P2;PMS_P1;PMS_P2;Temp;Humidity;BMP_temperature;BMP_pressure;BME280_temperature;BME280_humidity;BME280_pressure;Samples;Min_cycle;Max_cycle;Signal;HPM_P1;HPM_P2
2021/11/12 00:02:40;;;;;;;0.40;0.30;;;3.20;99.90;;;;;;5090971;28;20393;-69
2021/11/12 00:13:22;;;;;;;0.55;0.43;;;3.10;99.90;;;;;;5091113;28;20456;-69
2021/11/12 00:15:53;;;;;;;0.40;0.30;;;3.00;99.90;;;;;;5091599;28;20420;-69
2021/11/12 00:18:21;;;;;;;0.40;0.30;;;3.00;99.90;;;;;;5091059;28;20454;-69
2021/11/12 00:20:47;;;;;;;0.70;0.70;;;3.00;99.90;;;;;;5091477;28;20378;-70
2021/11/12 00:23:14;;;;;;;0.40;0.40;;;2.90;99.90;;;;;;5090978;28;20374;-69
2021/11/12 00:25:42;;;;;;;0.40;0.20;;;2.90;99.90;;;;;;5091509;28;20382;-69
2021/11/12 00:28:09;;;;;;;0.40;0.20;;;2.70;99.90;;;;;;5090751;28;20719;-70
2021/11/12 00:33:23;;;;;;;0.40;0.30;;;2.80;99.90;;;;;;5091358;28;20461;-69
2021/11/12 00:38:51;;;;;;;0.40;0.38;;;2.70;99.90;;;;;;5091043;28;20565;-70
2021/11/12 00:44:14;;;;;;;1.48;1.40;;;3.00;99.90;;;;;;5091069;28;20393;-70
2021/11/12 00:47:25;;;;;;;0.57;0.57;;;2.80;99.90;;;;;;5091267;28;20378;-70
2021/11/12 00:49:35;;;;;;;0.40;0.30;;;2.70;99.90;;;;;;5069367;28;20411;-70
2021/11/12 00:52:06;;;;;;;0.50;0.50;;;2.70;99.90;;;;;;5070486;28;20845;-70
2021/11/12 00:54:31;;;;;;;0.40;0.20;;;2.90;99.90;;;;;;5070193;28;20416;-70
2021/11/12 00:56:57;;;;;;;0.40;0.20;;;3.00;99.90;;;;;;5070721;28;20407;-70
2021/11/12 00:59:24;;;;;;;0.40;0.30;;;3.00;99.90;;;;;;5069891;28;20384;-70
2021/11/12 01:01:50;;;;;;;0.40;0.20;;;3.10;99.90;;;;;;5070723;28;20395;-70
2021/11/12 01:04:20;;;;;;;0.40;0.20;;;2.90;99.90;;;;;;5070078;28;20454;-70
2021/11/12 01:06:47;;;;;;;2.00;0.90;;;3.00;99.90;;;;;;5070230;28;20891;-70
2021/11/12 01:09:17;;;;;;;0.40;0.30;;;3.00;99.90;;;;;;5070119;28;20701;-70
2021/11/12 01:11:45;;;;;;;0.40;0.30;;;2.80;99.90;;;;;;5069295;28;20768;-70
2021/11/12 01:14:13;;;;;;;0.50;0.50;;;2.70;99.90;;;;;;5069922;28;20407;-72
2021/11/12 01:16:38;;;;;;;0.50;0.40;;;2.70;99.90;;;;;;5070233;28;20754;-70
2021/11/12 01:19:06;;;;;;;0.40;0.30;;;2.80;99.90;;;;;;5070886;28;20407;-70
2021/11/12 01:21:32;;;;;;;0.40;0.20;;;2.50;99.90;;;;;;5069853;28;20763;-70
2021/11/12 01:23:58;;;;;;;0.40;0.23;;;2.30;99.90;;;;;;5070264;28;20384;-70
2021/11/12 01:26:26;;;;;;;0.40;0.30;;;2.40;99.90;;;;;;5069742;28;20423;-70
2021/11/12 01:28:52;;;;;;;0.40;0.35;;;2.40;99.90;;;;;;5070359;28;20799;-70
2021/11/12 01:31:20;;;;;;;0.40;0.20;;;2.40;99.90;;;;;;5069931;28;20383;-70
2021/11/12 01:33:46;;;;;;;0.40;0.30;;;2.30;99.90;;;;;;5070182;28;20383;-70
2021/11/12 01:36:25;;;;;;;0.40;0.20;;;2.30;99.90;;;;;;5069747;28;20898;-71
2021/11/12 01:38:52;;;;;;;0.40;0.30;;;2.30;99.90;;;;;;5070411;28;20371;-70
2021/11/12 01:41:18;;;;;;;0.40;0.40;;;2.30;99.90;;;;;;5069744;28;20411;-70
2021/11/12 01:43:47;;;;;;;0.40;0.20;;;2.30;99.90;;;;;;5070286;28;20380;-69
2021/11/12 01:48:57;;;;;;;0.40;0.28;;;2.00;99.90;;;;;;5086576;28;20386;-70
2021/11/12 01:51:27;;;;;;;1.80;1.27;;;2.00;99.90;;;;;;5092695;28;20402;-70
2021/11/12 02:01:38;;;;;;;1.30;0.90;;;2.50;99.90;;;;;;5093824;28;20389;-69
2021/11/12 02:04:06;;;;;;;0.40;0.30;;;2.50;99.90;;;;;;5094368;28;20390;-69
2021/11/12 02:06:33;;;;;;;0.50;0.50;;;2.50;99.90;;;;;;5093733;28;20710;-70
2021/11/12 02:09:00;;;;;;;0.40;0.30;;;2.30;99.90;;;;;;5094286;28;20413;-70
2021/11/12 02:11:25;;;;;;;0.40;0.20;;;2.50;99.90;;;;;;5093690;28;20382;-70
2021/11/12 02:13:51;;;;;;;0.40;0.20;;;2.40;99.90;;;;;;5093982;28;20386;-70
2021/11/12 02:16:25;;;;;;;0.40;0.23;;;2.50;99.90;;;;;;5092324;28;20432;-70
2021/11/12 02:18:51;;;;;;;0.40;0.30;;;2.50;99.90;;;;;;5094231;28;20410;-70
2021/11/12 02:21:31;;;;;;;0.40;0.40;;;2.60;99.90;;;;;;5093450;28;20380;-70
2021/11/12 02:24:09;;;;;;;0.40;0.20;;;2.50;99.90;;;;;;5094033;28;20374;-70
2021/11/12 02:26:39;;;;;;;1.15;1.10;;;2.50;99.90;;;;;;5093257;28;20826;-70
2021/11/12 02:29:07;;;;;;;0.40;0.20;;;2.50;99.90;;;;;;5093891;28;20743;-70
2021/11/12 02:31:33;;;;;;;0.40;0.20;;;2.50;99.90;;;;;;5093285;28;20382;-70
2021/11/12 02:34:05;;;;;;;0.43;0.43;;;2.60;99.90;;;;;;5093865;28;20390;-70
2021/11/12 02:36:31;;;;;;;0.50;0.50;;;2.50;99.90;;;;;;5093178;28;20396;-70
2021/11/12 02:38:57;;;;;;;0.40;0.20;;;2.50;99.90;;;;;;5093422;28;20775;-69
2021/11/12 02:41:26;;;;;;;0.40;0.30;;;2.40;99.90;;;;;;5093155;28;20374;-70
2021/11/12 02:43:53;;;;;;;0.65;0.65;;;2.60;99.90;;;;;;5093611;28;20382;-70
2021/11/12 02:46:22;;;;;;;0.60;0.60;;;2.60;99.90;;;;;;5091645;28;20398;-70
2021/11/12 02:48:49;;;;;;;0.40;0.40;;;2.70;99.90;;;;;;5093286;28;20381;-70
2021/11/12 02:51:22;;;;;;;0.40;0.30;;;2.60;99.90;;;;;;5093309;28;20409;-70
2021/11/12 02:53:49;;;;;;;0.40;0.20;;;2.80;99.90;;;;;;5093545;28;20373;-70
2021/11/12 02:56:32;;;;;;;0.40;0.20;;;2.90;99.90;;;;;;5093308;28;20390;-70
2021/11/12 02:59:06;;;;;;;0.40;0.30;;;2.80;99.90;;;;;;5093495;28;20393;-70
2021/11/12 03:01:35;;;;;;;0.80;0.60;;;2.80;99.90;;;;;;5092463;28;20519;-70
2021/11/12 03:04:01;;;;;;;0.70;0.70;;;2.90;99.90;;;;;;5093029;28;20418;-69
2021/11/12 03:06:28;;;;;;;0.40;0.40;;;2.70;99.90;;;;;;5092618;28;20382;-70
2021/11/12 03:09:01;;;;;;;1.10;0.90;;;2.70;99.90;;;;;;5092946;28;20388;-70
2021/11/12 03:11:27;;;;;;;0.40;0.25;;;2.70;99.90;;;;;;5092611;28;20784;-70
2021/11/12 03:13:53;;;;;;;0.40;0.30;;;2.60;99.90;;;;;;5093025;28;20381;-70
2021/11/12 03:16:19;;;;;;;0.40;0.20;;;2.70;99.90;;;;;;5092417;28;20386;-70
2021/11/12 03:18:45;;;;;;;0.40;0.30;;;2.60;99.90;;;;;;5092553;28;20480;-70
2021/11/12 03:21:15;;;;;;;0.40;0.30;;;2.50;99.90;;;;;;5092955;28;20400;-70
2021/11/12 03:29:16;;;;;;;0.40;0.20;;;2.60;99.90;;;;;;5092693;28;20456;-70
2021/11/12 04:21:33;;;;;;;0.40;0.30;;;2.30;99.90;;;;;;5050893;28;20418;-70
2021/11/12 04:40:36;;;;;;;0.40;0.20;;;2.20;99.90;;;;;;5051188;28;20432;-70
2021/11/12 05:34:30;;;;;;;0.40;0.30;;;2.30;99.90;;;;;;5091243;28;20477;-70
2021/11/12 05:50:21;;;;;;;9.30;0.77;;;2.50;99.90;;;;;;5090866;28;20427;-70
2021/11/12 05:55:31;;;;;;;0.63;0.57;;;2.50;99.90;;;;;;5090000;28;20777;-70
2021/11/12 05:57:59;;;;;;;0.87;0.87;;;2.60;99.90;;;;;;5079647;28;20394;-70
2021/11/12 06:00:26;;;;;;;0.40;0.20;;;2.50;99.90;;;;;;5080714;28;20927;-70
2021/11/12 06:02:52;;;;;;;0.50;0.50;;;2.60;99.90;;;;;;5078704;28;20386;-70
2021/11/12 06:05:18;;;;;;;0.40;0.30;;;2.70;99.90;;;;;;5081007;28;20414;-70
2021/11/12 06:07:47;;;;;;;0.40;0.30;;;2.70;99.90;;;;;;5072855;28;20396;-70
2021/11/12 06:10:14;;;;;;;0.40;0.20;;;2.80;99.90;;;;;;5077533;28;20388;-70
2021/11/12 06:12:40;;;;;;;0.40;0.30;;;2.90;99.90;;;;;;5074452;28;20735;-71
2021/11/12 06:15:07;;;;;;;0.40;0.20;;;2.80;99.90;;;;;;5083694;28;20404;-70
2021/11/12 06:17:33;;;;;;;0.40;0.20;;;3.00;99.90;;;;;;5078140;28;20474;-70
2021/11/12 06:20:00;;;;;;;0.40;0.20;;;2.70;99.90;;;;;;5076554;28;20419;-71
2021/11/12 06:22:26;;;;;;;0.40;0.20;;;2.80;99.90;;;;;;5086976;28;20440;-71
2021/11/12 06:24:52;;;;;;;0.40;0.30;;;2.70;99.90;;;;;;5106427;28;20395;-70
2021/11/12 06:27:18;;;;;;;0.40;0.20;;;2.80;99.90;;;;;;5093835;28;20741;-70
2021/11/12 06:29:44;;;;;;;0.40;0.30;;;2.90;99.90;;;;;;5101840;28;20382;-70
2021/11/12 06:32:09;;;;;;;0.40;0.20;;;2.80;99.90;;;;;;5100589;28;20380;-70
2021/11/12 06:34:35;;;;;;;0.40;0.20;;;2.90;99.90;;;;;;5094752;28;20551;-71
2021/11/12 06:37:01;;;;;;;0.40;0.30;;;2.90;99.90;;;;;;5107654;28;20403;-70
2021/11/12 06:39:27;;;;;;;0.40;0.30;;;2.80;99.90;;;;;;5093347;28;20382;-69
2021/11/12 06:41:55;;;;;;;0.40;0.20;;;2.70;99.90;;;;;;5093087;28;20380;-70
2021/11/12 06:50:02;;;;;;;0.40;0.20;;;2.90;99.90;;;;;;5093143;28;20374;-70
2021/11/12 06:52:31;;;;;;;0.40;0.20;;;2.60;99.90;;;;;;5093877;28;20386;-69
2021/11/12 06:55:01;;;;;;;0.40;0.30;;;2.50;99.90;;;;;;5093750;28;20499;-70
2021/11/12 06:57:27;;;;;;;0.40;0.20;;;2.50;99.90;;;;;;5093846;28;20386;-69
2021/11/12 06:59:53;;;;;;;0.80;0.80;;;2.50;99.90;;;;;;5092933;28;20390;-69
2021/11/12 07:02:22;;;;;;;0.60;0.60;;;2.30;99.90;;;;;;5087975;28;20739;-69
2021/11/12 07:04:48;;;;;;;0.40;0.30;;;2.50;99.90;;;;;;5081736;28;20430;-69
2021/11/12 07:07:15;;;;;;;0.40;0.30;;;2.60;99.90;;;;;;5082091;28;20392;-70
2021/11/12 07:09:41;;;;;;;0.50;0.50;;;2.50;99.90;;;;;;5073109;28;20406;-70
2021/11/12 07:12:07;;;;;;;0.40;0.30;;;2.60;99.90;;;;;;5073558;28;20670;-70
2021/11/12 07:14:33;;;;;;;0.40;0.30;;;2.70;99.90;;;;;;5072345;28;20471;-71
2021/11/12 07:16:59;;;;;;;0.80;0.80;;;2.60;99.90;;;;;;5073082;28;20392;-70
2021/11/12 07:19:25;;;;;;;0.90;0.90;;;2.60;99.90;;;;;;5073123;28;20368;-70
2021/11/12 07:21:52;;;;;;;0.70;0.60;;;2.70;99.90;;;;;;5072475;28;20437;-70
2021/11/12 07:24:19;;;;;;;0.40;0.20;;;2.70;99.90;;;;;;5071898;28;20803;-70
2021/11/12 07:26:45;;;;;;;0.80;0.70;;;2.60;99.90;;;;;;5072443;28;20380;-70
2021/11/12 07:29:10;;;;;;;0.40;0.40;;;2.50;99.90;;;;;;5071770;28;20398;-70
2021/11/12 07:31:38;;;;;;;0.50;0.50;;;2.40;99.90;;;;;;5072016;28;20378;-70
2021/11/12 07:34:04;;;;;;;0.50;0.50;;;2.30;99.90;;;;;;5072788;28;20505;-70
2021/11/12 07:36:38;;;;;;;0.40;0.30;;;2.40;99.90;;;;;;5072776;28;20463;-70
2021/11/12 07:39:10;;;;;;;0.40;0.20;;;2.50;99.90;;;;;;5073284;28;20382;-69
2021/11/12 07:47:31;;;;;;;1.30;1.20;;;2.60;99.90;;;;;;5091929;28;20452;-69
2021/11/12 07:49:54;;;;;;;0.40;0.40;;;2.60;99.90;;;;;;5089421;28;20386;-69
2021/11/12 07:52:23;;;;;;;0.40;0.40;;;2.60;99.90;;;;;;5091187;28;20771;-69
2021/11/12 07:54:50;;;;;;;0.40;0.20;;;2.50;99.90;;;;;;5092069;28;20487;-69
2021/11/12 07:57:16;;;;;;;0.40;0.20;;;2.60;99.90;;;;;;5092565;28;20479;-69
2021/11/12 07:59:43;;;;;;;0.40;0.20;;;2.60;99.90;;;;;;5092107;28;20367;-69
2021/11/12 08:02:11;;;;;;;0.90;0.80;;;2.60;99.90;;;;;;5088596;28;20387;-69
2021/11/12 08:04:37;;;;;;;0.40;0.20;;;2.70;99.90;;;;;;5076217;28;20406;-69
2021/11/12 08:07:03;;;;;;;0.40;0.30;;;2.70;99.90;;;;;;5072197;28;20380;-69
2021/11/12 08:09:35;;;;;;;1.20;0.60;;;2.70;99.90;;;;;;5076306;28;20378;-69
2021/11/12 08:12:06;;;;;;;0.40;0.40;;;2.80;99.90;;;;;;5092409;28;20379;-69
2021/11/12 08:14:38;;;;;;;0.40;0.30;;;2.60;99.90;;;;;;5092515;28;20885;-70
2021/11/12 08:17:19;;;;;;;0.70;0.70;;;2.80;99.90;;;;;;5092133;28;20723;-69
2021/11/12 08:22:34;;;;;;;0.40;0.20;;;2.70;99.90;;;;;;5092186;28;20386;-69
2021/11/12 08:27:49;;;;;;;1.00;0.60;;;3.00;99.90;;;;;;5074092;28;20756;-69
2021/11/12 08:30:31;;;;;;;0.40;0.20;;;2.80;99.90;;;;;;5073255;28;20492;-69
2021/11/12 08:33:11;;;;;;;0.70;0.50;;;3.10;99.90;;;;;;5091281;28;20420;-70
2021/11/12 08:38:16;;;;;;;0.40;0.20;;;3.10;99.90;;;;;;5076496;28;20394;-69
2021/11/12 08:43:25;;;;;;;0.40;0.20;;;3.00;99.90;;;;;;5071511;28;20395;-69
2021/11/12 08:48:21;;;;;;;0.40;0.20;;;3.30;99.90;;;;;;5080147;28;20774;-70
2021/11/12 08:50:48;;;;;;;2.50;1.02;;;3.20;99.90;;;;;;5078095;28;20413;-70
2021/11/12 08:53:15;;;;;;;1.58;0.73;;;3.40;99.90;;;;;;5087922;28;20374;-70
2021/11/12 08:55:42;;;;;;;0.40;0.40;;;3.30;99.90;;;;;;5090897;28;20539;-70
2021/11/12 08:58:10;;;;;;;0.40;0.20;;;3.40;99.90;;;;;;5083213;28;20497;-70
2021/11/12 09:00:37;;;;;;;0.50;0.40;;;2.90;99.90;;;;;;5071011;28;20386;-70
2021/11/12 09:03:03;;;;;;;0.40;0.35;;;3.10;99.90;;;;;;5070792;28;20402;-70
2021/11/12 09:05:29;;;;;;;0.40;0.30;;;3.20;99.90;;;;;;5071294;28;20919;-69
2021/11/12 09:07:56;;;;;;;0.40;0.30;;;2.90;99.90;;;;;;5070420;28;20422;-70
2021/11/12 09:10:24;;;;;;;0.57;0.57;;;3.00;99.90;;;;;;5071018;28;20376;-70
2021/11/12 09:12:58;;;;;;;0.80;0.60;;;3.00;99.90;;;;;;5070378;28;20384;-70
2021/11/12 09:15:30;;;;;;;0.40;0.40;;;3.10;99.90;;;;;;5069560;28;20399;-70
2021/11/12 09:17:58;;;;;;;0.50;0.50;;;3.20;99.90;;;;;;5070445;28;20737;-70
2021/11/12 09:20:24;;;;;;;0.40;0.20;;;3.10;99.90;;;;;;5070932;28;20392;-70
2021/11/12 09:22:52;;;;;;;0.40;0.30;;;3.40;99.90;;;;;;5070328;28;20384;-70
2021/11/12 09:25:20;;;;;;;1.70;1.60;;;3.30;99.90;;;;;;5070933;28;20478;-70
2021/11/12 09:27:45;;;;;;;0.40;0.20;;;3.50;99.90;;;;;;5070499;28;20534;-70
2021/11/12 09:30:18;;;;;;;0.60;0.60;;;3.30;99.90;;;;;;5070957;28;20392;-70
2021/11/12 09:32:43;;;;;;;2.10;0.50;;;3.10;99.90;;;;;;5070302;28;20391;-70
2021/11/12 09:35:10;;;;;;;0.40;0.30;;;3.40;99.90;;;;;;5070466;28;20815;-70
2021/11/12 09:37:35;;;;;;;0.40;0.20;;;3.70;99.90;;;;;;5070426;28;20951;-70
2021/11/12 09:40:04;;;;;;;0.50;0.50;;;3.70;99.90;;;;;;5070209;28;20422;-70
2021/11/12 09:42:31;;;;;;;0.40;0.40;;;3.40;99.90;;;;;;5071911;28;20467;-70
2021/11/12 09:45:01;;;;;;;0.50;0.45;;;3.70;99.90;;;;;;5089082;28;20841;-70
2021/11/12 09:47:27;;;;;;;0.40;0.20;;;3.80;99.90;;;;;;5076509;28;20812;-70
2021/11/12 09:49:56;;;;;;;0.40;0.20;;;3.90;99.90;;;;;;5090323;28;20378;-70
2021/11/12 09:52:24;;;;;;;0.40;0.20;;;4.00;99.90;;;;;;5090964;28;20422;-70
2021/11/12 09:54:51;;;;;;;0.40;0.30;;;4.20;99.90;;;;;;5090094;28;20486;-69
2021/11/12 09:57:16;;;;;;;0.40;0.30;;;4.30;99.90;;;;;;5090626;28;20485;-69
2021/11/12 09:59:52;;;;;;;0.40;0.20;;;4.30;99.90;;;;;;5090191;28;20378;-70
2021/11/12 10:02:19;;;;;;;0.50;0.45;;;4.00;99.90;;;;;;5089041;28;20777;-71
2021/11/12 10:04:46;;;;;;;0.40;0.20;;;4.20;99.90;;;;;;5089748;28;20386;-70
2021/11/12 10:07:14;;;;;;;0.40;0.30;;;4.40;99.90;;;;;;5090614;28;20397;-70
2021/11/12 10:09:42;;;;;;;0.85;0.85;;;4.60;99.90;;;;;;5090548;28;20374;-70
2021/11/12 10:12:09;;;;;;;0.40;0.30;;;4.60;99.90;;;;;;5093364;28;20377;-70
2021/11/12 10:14:49;;;;;;;0.60;0.60;;;4.30;99.90;;;;;;5094561;28;20409;-70
2021/11/12 10:17:18;;;;;;;0.60;0.60;;;4.40;99.90;;;;;;5094877;28;20785;-70
2021/11/12 10:19:51;;;;;;;0.60;0.60;;;4.50;99.90;;;;;;5093794;28;20773;-71
2021/11/12 10:22:22;;;;;;;0.63;0.63;;;4.60;99.90;;;;;;5094702;28;20413;-70
2021/11/12 10:24:48;;;;;;;0.40;0.30;;;4.90;99.90;;;;;;5093777;28;20469;-70
2021/11/12 10:27:15;;;;;;;0.40;0.30;;;4.90;99.90;;;;;;5094342;28;20414;-70
2021/11/12 10:29:48;;;;;;;0.40;0.30;;;4.80;99.90;;;;;;5094031;28;20475;-70
2021/11/12 10:32:20;;;;;;;0.80;0.70;;;4.70;99.90;;;;;;5093149;28;20821;-70
2021/11/12 10:34:49;;;;;;;0.50;0.50;;;4.60;99.90;;;;;;5093539;28;20406;-70
2021/11/12 10:37:25;;;;;;;1.00;0.45;;;4.40;99.90;;;;;;5094508;28;20397;-70
2021/11/12 10:39:57;;;;;;;0.40;0.20;;;4.30;99.90;;;;;;5093471;28;20382;-70
2021/11/12 10:42:26;;;;;;;1.10;0.70;;;4.40;99.90;;;;;;5094091;28;20382;-70
2021/11/12 10:44:57;;;;;;;0.40;0.30;;;4.80;99.90;;;;;;5092113;28;20801;-71
2021/11/12 10:47:25;;;;;;;0.40;0.30;;;4.90;99.90;;;;;;5094197;28;20465;-71
2021/11/12 10:50:03;;;;;;;0.57;0.57;;;4.90;99.90;;;;;;5093181;28;20461;-71
2021/11/12 10:52:31;;;;;;;0.40;0.25;;;5.10;99.90;;;;;;5093787;28;20394;-71
2021/11/12 10:55:21;;;;;;;0.40;0.22;;;5.50;99.90;;;;;;5093204;28;20951;-71
2021/11/12 10:57:52;;;;;;;0.80;0.80;;;5.40;99.90;;;;;;5093105;28;20441;-71
2021/11/12 11:00:25;;;;;;;0.40;0.40;;;5.40;99.90;;;;;;5093971;28;20382;-71
2021/11/12 11:02:56;;;;;;;0.40;0.30;;;5.40;99.90;;;;;;5092910;28;20401;-70
2021/11/12 11:05:25;;;;;;;0.50;0.50;;;4.90;99.90;;;;;;5093614;28;20398;-70
2021/11/12 11:07:59;;;;;;;0.40;0.20;;;4.90;99.90;;;;;;5092767;28;20390;-70
2021/11/12 11:10:35;;;;;;;0.40;0.30;;;5.10;99.90;;;;;;5093535;28;20389;-70
2021/11/12 11:13:11;;;;;;;0.40;0.20;;;5.00;99.90;;;;;;5092924;28;20383;-70
2021/11/12 11:15:50;;;;;;;0.50;0.40;;;5.60;99.90;;;;;;5093831;28;20459;-71
2021/11/12 11:18:30;;;;;;;0.40;0.30;;;5.60;99.90;;;;;;5093141;28;20434;-71
2021/11/12 11:21:14;;;;;;;0.40;0.30;;;5.50;99.90;;;;;;5092826;28;20465;-70
2021/11/12 11:24:10;;;;;;;1.40;0.93;;;5.20;99.90;;;;;;5093294;28;20378;-70
2021/11/12 11:26:48;;;;;;;0.40;0.20;;;5.30;99.90;;;;;;5075063;28;20916;-71
2021/11/12 11:29:23;;;;;;;0.40;0.30;;;5.20;99.90;;;;;;5078785;28;20465;-70
2021/11/12 11:31:54;;;;;;;0.43;0.30;;;5.40;99.90;;;;;;5092350;28;20401;-70
2021/11/12 11:34:21;;;;;;;0.40;0.30;;;5.10;99.90;;;;;;5092089;28;20477;-70
2021/11/12 11:36:48;;;;;;;0.40;0.40;;;5.00;99.90;;;;;;5072848;28;20404;-70
2021/11/12 11:39:16;;;;;;;0.40;0.30;;;4.90;99.90;;;;;;5072764;28;20459;-71
2021/11/12 11:41:45;;;;;;;1.02;0.65;;;5.30;99.90;;;;;;5072903;28;20373;-71
2021/11/12 11:44:13;;;;;;;0.40;0.20;;;5.30;99.90;;;;;;5086118;28;20380;-71
2021/11/12 11:46:42;;;;;;;0.40;0.20;;;4.70;99.90;;;;;;5074699;28;20372;-71
2021/11/12 11:49:13;;;;;;;0.40;0.20;;;5.00;99.90;;;;;;5092253;28;20382;-70
2021/11/12 11:51:52;;;;;;;0.40;0.30;;;5.00;99.90;;;;;;5092471;28;20397;-70
2021/11/12 11:54:19;;;;;;;0.40;0.40;;;5.20;99.90;;;;;;5092468;28;20379;-70
2021/11/12 11:57:12;;;;;;;0.40;0.30;;;5.40;99.90;;;;;;5092695;28;20390;-70
2021/11/12 11:59:40;;;;;;;1.70;1.30;;;5.40;99.90;;;;;;5086956;28;20522;-70
2021/11/12 12:02:16;;;;;;;1.70;0.90;;;5.50;99.90;;;;;;5091982;28;20377;-70
2021/11/12 12:04:57;;;;;;;0.70;0.60;;;5.70;99.90;;;;;;5092441;28;20386;-70
2021/11/12 12:07:26;;;;;;;0.40;0.20;;;5.80;99.90;;;;;;5092782;28;20658;-70
2021/11/12 12:09:54;;;;;;;0.70;0.70;;;5.80;99.90;;;;;;5091722;28;20390;-70
2021/11/12 12:12:29;;;;;;;0.40;0.30;;;5.50;99.90;;;;;;5092507;28;20469;-71
2021/11/12 12:15:17;;;;;;;0.60;0.60;;;5.70;99.90;;;;;;5091604;28;20627;-71
2021/11/12 12:17:49;;;;;;;0.40;0.30;;;5.40;99.90;;;;;;5084397;28;20390;-71
2021/11/12 12:31:46;;;;;;;0.40;0.20;;;5.40;99.90;;;;;;5075061;28;20830;-71
2021/11/12 13:26:01;;;;;;;0.50;0.50;;;5.10;99.90;;;;;;5077103;28;20398;-71
2021/11/12 13:28:30;;;;;;;0.80;0.80;;;5.20;99.90;;;;;;5077237;28;20401;-71
2021/11/12 13:31:13;;;;;;;0.40;0.20;;;5.20;99.90;;;;;;5076660;28;20394;-69
2021/11/12 13:33:43;;;;;;;0.90;0.40;;;5.00;99.90;;;;;;5078141;28;20382;-71
2021/11/12 13:36:21;;;;;;;0.65;0.65;;;5.00;99.90;;;;;;5076957;28;20540;-71
2021/11/12 13:39:03;;;;;;;1.50;0.60;;;5.10;99.90;;;;;;5076126;28;20771;-71
2021/11/12 13:41:44;;;;;;;0.40;0.20;;;5.10;99.90;;;;;;5077180;28;20390;-69
2021/11/12 13:44:14;;;;;;;0.40;0.20;;;5.10;99.90;;;;;;5075459;28;20394;-70
2021/11/12 13:47:12;;;;;;;2.10;1.00;;;5.10;99.90;;;;;;5078855;28;20463;-69
2021/11/12 13:49:40;;;;;;;0.40;0.40;;;4.80;99.90;;;;;;5076552;28;20402;-71
2021/11/12 13:52:10;;;;;;;0.68;0.68;;;4.90;99.90;;;;;;5080793;28;20468;-70
2021/11/12 13:54:45;;;;;;;0.50;0.50;;;5.00;99.90;;;;;;5081105;28;20409;-70
2021/11/12 13:57:27;;;;;;;0.40;0.30;;;4.80;99.90;;;;;;5080414;28;20389;-70
2021/11/12 13:59:58;;;;;;;0.70;0.60;;;4.90;99.90;;;;;;5079828;28;20382;-71
2021/11/12 14:02:24;;;;;;;1.10;1.00;;;4.90;99.90;;;;;;5081421;28;20382;-70
2021/11/12 14:04:50;;;;;;;0.60;0.60;;;4.80;99.90;;;;;;5081225;28;20411;-70
2021/11/12 14:07:22;;;;;;;0.40;0.30;;;4.50;99.90;;;;;;5079911;28;20500;-71
2021/11/12 14:10:06;;;;;;;0.40;0.38;;;4.50;99.90;;;;;;5079293;28;21645;-71
2021/11/12 14:12:33;;;;;;;0.40;0.20;;;4.70;99.90;;;;;;5081619;28;20810;-71
2021/11/12 14:15:15;;;;;;;0.60;0.60;;;4.70;99.90;;;;;;5080657;28;20406;-70
2021/11/12 14:17:57;;;;;;;0.40;0.20;;;4.50;99.90;;;;;;5080882;28;20421;-70
2021/11/12 14:20:33;;;;;;;0.40;0.20;;;4.40;99.90;;;;;;5079232;28;20468;-71
2021/11/12 14:23:04;;;;;;;0.40;0.20;;;4.50;99.90;;;;;;5080568;28;20417;-70
2021/11/12 14:28:35;;;;;;;0.57;0.45;;;4.50;99.90;;;;;;5063435;28;20408;-71
2021/11/12 14:31:16;;;;;;;2.67;0.90;;;4.40;99.90;;;;;;5079544;28;20393;-71
2021/11/12 14:36:22;;;;;;;0.40;0.40;;;4.20;99.90;;;;;;5080245;28;20428;-71
2021/11/12 14:38:57;;;;;;;0.50;0.38;;;4.20;99.90;;;;;;5079281;28;20472;-70
2021/11/12 14:44:38;;;;;;;1.40;1.00;;;4.00;99.90;;;;;;5080511;28;20390;-70
2021/11/12 14:49:38;;;;;;;0.40;0.20;;;4.20;99.90;;;;;;5075892;28;20888;-71
2021/11/12 14:52:11;;;;;;;0.40;0.30;;;4.30;99.90;;;;;;5078484;28;20935;-71
2021/11/12 14:54:50;;;;;;;0.80;0.60;;;4.10;99.90;;;;;;5080443;28;20441;-71
2021/11/12 14:57:28;;;;;;;0.40;0.30;;;4.10;99.90;;;;;;5079931;28;20659;-71
2021/11/12 15:00:06;;;;;;;0.50;0.43;;;4.10;99.90;;;;;;5076492;28;20393;-71
2021/11/12 15:02:34;;;;;;;1.00;0.90;;;4.10;99.90;;;;;;5081160;28;20401;-71
2021/11/12 15:04:59;;;;;;;0.40;0.30;;;4.10;99.90;;;;;;5079041;28;20410;-72
2021/11/12 15:07:29;;;;;;;0.40;0.30;;;4.10;99.90;;;;;;5081593;28;20532;-71
2021/11/12 15:09:55;;;;;;;0.43;0.32;;;4.20;99.90;;;;;;5092667;28;20382;-71
2021/11/12 15:12:22;;;;;;;0.50;0.40;;;4.20;99.90;;;;;;5092624;28;20789;-71
2021/11/12 15:14:55;;;;;;;0.60;0.60;;;4.30;99.90;;;;;;5093009;28;20397;-71
2021/11/12 15:17:22;;;;;;;0.40;0.40;;;3.90;99.90;;;;;;5092933;28;20754;-70
2021/11/12 15:19:48;;;;;;;0.40;0.20;;;3.90;99.90;;;;;;5093327;28;20708;-70
2021/11/12 15:30:03;;;;;;;1.30;0.70;;;3.90;99.90;;;;;;5093218;28;20551;-71
2021/11/12 15:32:33;;;;;;;0.70;0.60;;;4.20;99.90;;;;;;5093139;28;20389;-71
2021/11/12 15:35:13;;;;;;;0.40;0.30;;;4.30;99.90;;;;;;5092780;28;20453;-71
2021/11/12 15:37:45;;;;;;;0.52;0.43;;;4.20;99.90;;;;;;5092896;28;20861;-71
2021/11/12 15:53:12;;;;;;;0.40;0.25;;;4.40;99.90;;;;;;5092319;28;20374;-71
2021/11/12 16:13:28;;;;;;;0.80;0.70;;;4.60;99.90;;;;;;5091638;28;20427;-71
2021/11/12 16:26:17;;;;;;;0.40;0.20;;;4.60;99.90;;;;;;5091538;28;20749;-71
2021/11/12 16:28:56;;;;;;;0.90;0.50;;;4.50;99.90;;;;;;5092085;28;20386;-71
2021/11/12 16:31:23;;;;;;;0.55;0.55;;;4.60;99.90;;;;;;5091524;28;20467;-71
2021/11/12 16:33:49;;;;;;;1.00;0.82;;;4.60;99.90;;;;;;5086883;28;20386;-71
2021/11/12 16:36:15;;;;;;;0.40;0.30;;;4.50;99.90;;;;;;5085011;28;20409;-71
2021/11/12 16:38:42;;;;;;;0.87;0.87;;;4.40;99.90;;;;;;5091464;28;20389;-71
2021/11/12 16:41:18;;;;;;;0.40;0.30;;;4.30;99.90;;;;;;5090997;28;20374;-71
2021/11/12 16:44:08;;;;;;;0.68;0.57;;;4.20;99.90;;;;;;5090444;28;20874;-71
2021/11/12 16:51:57;;;;;;;2.20;1.40;;;4.40;99.90;;;;;;5071016;28;20844;-71
2021/11/12 17:05:05;;;;;;;0.40;0.30;;;4.30;99.90;;;;;;5085245;28;20406;-71
2021/11/12 17:15:23;;;;;;;2.47;1.83;;;4.70;99.90;;;;;;5070711;28;20414;-72
2021/11/12 17:18:10;;;;;;;0.40;0.30;;;4.60;99.90;;;;;;5069659;28;20414;-72
2021/11/12 17:47:45;;;;;;;1.00;0.90;;;4.20;99.90;;;;;;5098787;28;20381;-73
2021/11/12 18:03:46;;;;;;;1.60;1.10;;;4.20;99.90;;;;;;5085087;28;20440;-70
2021/11/12 18:06:33;;;;;;;0.40;0.40;;;4.00;99.90;;;;;;5100323;28;20388;-72
2021/11/12 18:12:26;;;;;;;1.00;0.90;;;4.00;99.90;;;;;;5054378;28;20833;-70
2021/11/12 18:17:52;;;;;;;0.40;0.40;;;3.80;99.90;;;;;;5079299;28;20531;-71
2021/11/12 21:45:22;;;;;;;0.60;0.60;;;3.10;99.90;;;;;;5099107;28;20389;-72
2021/11/12 21:47:48;;;;;;;1.40;0.60;;;2.90;99.90;;;;;;5096867;28;20710;-72
2021/11/12 21:50:14;;;;;;;0.40;0.20;;;3.00;99.90;;;;;;5090791;28;20457;-72
2021/11/12 21:52:40;;;;;;;0.50;0.50;;;2.90;99.90;;;;;;5083157;28;20406;-73
2021/11/12 21:55:07;;;;;;;0.60;0.60;;;2.90;99.90;;;;;;5078141;28;20845;-73
2021/11/12 21:57:34;;;;;;;0.47;0.47;;;3.00;99.90;;;;;;5077561;28;20386;-73
2021/11/12 22:00:00;;;;;;;0.40;0.40;;;2.90;99.90;;;;;;5077317;28;20858;-71
2021/11/12 22:02:26;;;;;;;0.40;0.30;;;2.90;99.90;;;;;;5077200;28;20455;-72
2021/11/12 22:04:52;;;;;;;0.70;0.70;;;2.80;99.90;;;;;;5076687;28;20406;-72
2021/11/12 22:07:18;;;;;;;0.40;0.20;;;2.90;99.90;;;;;;5078979;28;20515;-72
2021/11/12 22:09:43;;;;;;;0.60;0.50;;;3.00;99.90;;;;;;5080706;28;20750;-72
2021/11/12 22:12:09;;;;;;;0.40;0.30;;;3.00;99.90;;;;;;5081941;28;20469;-71
2021/11/12 22:14:35;;;;;;;0.50;0.50;;;2.70;99.90;;;;;;5078013;28;20386;-72
2021/11/12 22:17:03;;;;;;;0.40;0.40;;;2.60;99.90;;;;;;5080640;28;20397;-71
2021/11/12 22:19:29;;;;;;;0.40;0.30;;;2.50;99.90;;;;;;5080188;28;20850;-72
2021/11/12 22:21:56;;;;;;;0.55;0.55;;;2.60;99.90;;;;;;5080355;28;20540;-72
2021/11/12 22:24:22;;;;;;;0.50;0.50;;;2.70;99.90;;;;;;5078015;28;20389;-73
2021/11/12 22:26:49;;;;;;;1.70;1.20;;;2.70;99.90;;;;;;5078787;28;20390;-71
2021/11/12 22:29:16;;;;;;;1.50;0.70;;;2.60;99.90;;;;;;5079754;28;20378;-72
2021/11/12 22:31:42;;;;;;;0.40;0.30;;;2.50;99.90;;;;;;5079708;28;20451;-72
2021/11/12 22:34:08;;;;;;;0.40;0.30;;;2.50;99.90;;;;;;5078179;28;20390;-71
2021/11/12 22:36:34;;;;;;;0.40;0.20;;;2.60;99.90;;;;;;5079808;28;20422;-71
2021/11/12 22:39:00;;;;;;;0.70;0.70;;;2.50;99.90;;;;;;5080129;28;20394;-71
2021/11/12 22:41:25;;;;;;;0.40;0.30;;;2.70;99.90;;;;;;5079426;28;20382;-71
2021/11/12 22:43:59;;;;;;;0.70;0.70;;;2.80;99.90;;;;;;5078899;28;20385;-71
2021/11/12 22:46:29;;;;;;;0.40;0.30;;;2.90;99.90;;;;;;5078172;28;21542;-72
2021/11/12 22:48:55;;;;;;;0.40;0.30;;;3.00;99.90;;;;;;5080214;28;20389;-72
2021/11/12 22:51:21;;;;;;;0.40;0.30;;;3.00;99.90;;;;;;5080192;28;20406;-72
2021/11/12 22:53:47;;;;;;;0.40;0.20;;;2.90;99.90;;;;;;5076495;28;20854;-72
2021/11/12 22:56:13;;;;;;;0.40;0.30;;;3.10;99.90;;;;;;5079782;28;20497;-72
2021/11/12 22:58:39;;;;;;;0.85;0.50;;;3.10;99.90;;;;;;5079889;28;20443;-72
2021/11/12 23:01:17;;;;;;;0.40;0.30;;;3.10;99.90;;;;;;5079569;28;20878;-72
2021/11/12 23:03:43;;;;;;;0.50;0.50;;;3.00;99.90;;;;;;5077462;28;20378;-71